Time;durP1;ratioP1;P1;durP2;ratioP2;P2;SDS_P1;SDS_P2;PMS_P1;PMS_P2;Temp;Humidity;BMP_temperature;BMP_pressure;BME280_temperature;BME280_humidity;BME280_pressure;Samples;Min_cycle;Max_cycle;Signal;HPM_P1;HPM_P2
2021/10/12 00:00:18;;;;;;;9.50;2.83;;;;;;;14.49;67.13;101869.88;4996024;28;20033;-95
2021/10/12 00:02:43;;;;;;;5.85;2.30;;;;;;;14.48;66.99;101862.91;4995678;28;20036;-95
2021/10/12 00:05:09;;;;;;;8.43;2.58;;;;;;;14.55;66.55;101856.28;4995681;28;20028;-95
2021/10/12 00:07:34;;;;;;;13.65;3.40;;;;;;;14.56;66.95;101858.03;4995583;28;20026;-95
2021/10/12 00:10:00;;;;;;;7.65;2.50;;;;;;;14.36;67.60;101853.09;4995900;28;20026;-95
2021/10/12 00:12:25;;;;;;;7.32;2.92;;;;;;;14.50;66.86;101854.91;4995914;28;20022;-95
2021/10/12 00:14:51;;;;;;;8.27;3.00;;;;;;;14.53;66.73;101852.03;4996966;28;20041;-94
2021/10/12 00:17:16;;;;;;;7.47;3.05;;;;;;;14.53;67.13;101854.69;4996425;28;20412;-94
2021/10/12 00:19:42;;;;;;;6.75;2.50;;;;;;;14.51;67.17;101846.00;4997610;28;20388;-94
2021/10/12 00:22:08;;;;;;;11.05;3.20;;;;;;;14.40;67.35;101850.16;5000977;28;20053;-93
2021/10/12 00:24:33;;;;;;;8.48;3.00;;;;;;;14.39;67.57;101844.97;5000895;28;20037;-93
2021/10/12 00:26:59;;;;;;;5.82;2.03;;;;;;;14.60;67.21;101845.47;5000986;28;20164;-93
2021/10/12 00:29:24;;;;;;;9.30;2.92;;;;;;;14.54;67.05;101846.66;4997002;28;20022;-95
2021/10/12 00:31:50;;;;;;;6.47;2.88;;;;;;;14.60;67.17;101838.38;4995146;28;20113;-94
2021/10/12 00:34:18;;;;;;;7.85;2.78;;;;;;;14.61;67.15;101839.22;4994775;28;20033;-96
2021/10/12 00:36:44;;;;;;;9.25;2.95;;;;;;;14.56;66.97;101847.47;4995383;28;20026;-95
2021/10/12 00:39:09;;;;;;;9.93;3.10;;;;;;;14.52;67.37;101832.69;4995270;28;20026;-94
2021/10/12 00:41:34;;;;;;;11.93;2.85;;;;;;;14.58;67.04;101840.28;4995153;28;20022;-95
2021/10/12 00:44:00;;;;;;;7.93;3.30;;;;;;;14.56;67.09;101833.38;4995403;28;20025;-94
2021/10/12 00:46:26;;;;;;;12.13;3.22;;;;;;;14.59;66.63;101835.84;4994820;28;20534;-96
2021/10/12 00:48:51;;;;;;;7.13;2.83;;;;;;;14.54;66.45;101830.81;5012730;28;20026;-94
2021/10/12 00:51:17;;;;;;;7.68;3.28;;;;;;;14.53;66.28;101828.25;4995455;28;20026;-96
2021/10/12 00:53:42;;;;;;;8.40;2.63;;;;;;;14.37;66.54;101823.06;4995309;28;20028;-96
2021/10/12 00:56:08;;;;;;;10.90;3.13;;;;;;;14.37;66.44;101823.06;4995303;28;20049;-95
2021/10/12 00:58:34;;;;;;;12.30;3.63;;;;;;;14.19;66.65;101835.63;4995207;28;20026;-96
2021/10/12 01:01:00;;;;;;;13.98;3.72;;;;;;;14.21;67.29;101820.50;4994843;28;20480;-94
2021/10/12 01:03:25;;;;;;;10.05;3.25;;;;;;;14.27;66.45;101820.13;4994939;28;20456;-94
2021/10/12 01:05:51;;;;;;;9.20;3.85;;;;;;;14.23;66.74;101814.19;4994674;28;20018;-95
2021/10/12 01:08:16;;;;;;;13.48;3.78;;;;;;;14.22;66.20;101820.44;4994852;28;20022;-94
2021/10/12 01:10:42;;;;;;;13.77;4.18;;;;;;;14.09;66.85;101814.19;4994848;28;20076;-95
2021/10/12 01:13:08;;;;;;;6.25;3.10;;;;;;;13.88;67.00;101809.25;4995065;28;20033;-96
2021/10/12 01:15:34;;;;;;;12.18;3.55;;;;;;;13.91;66.67;101802.09;4995143;28;20042;-95
2021/10/12 01:18:00;;;;;;;12.13;3.90;;;;;;;13.89;67.15;101810.09;4994824;28;20685;-94
2021/10/12 01:20:27;;;;;;;11.18;4.22;;;;;;;13.73;67.25;101810.16;4994873;28;20080;-94
2021/10/12 01:22:54;;;;;;;9.63;3.70;;;;;;;13.73;67.67;101796.97;4994881;28;20387;-96
2021/10/12 01:25:20;;;;;;;15.25;4.07;;;;;;;13.73;67.68;101796.97;4995071;28;20018;-95
2021/10/12 01:27:45;;;;;;;6.90;3.90;;;;;;;13.78;67.93;101801.97;4994384;28;20030;-96
2021/10/12 01:30:12;;;;;;;8.32;3.67;;;;;;;13.96;67.16;101808.81;4994883;28;20117;-95
2021/10/12 01:32:44;;;;;;;7.78;3.70;;;;;;;14.07;66.56;101800.22;4994958;28;20061;-95
2021/10/12 01:35:10;;;;;;;11.50;4.30;;;;;;;14.06;67.23;101794.09;4994704;28;20068;-96
2021/10/12 01:37:37;;;;;;;8.57;3.33;;;;;;;14.07;66.98;101802.88;4994852;28;20488;-95
2021/10/12 01:40:06;;;;;;;11.27;3.85;;;;;;;14.06;66.69;101793.25;4994895;28;20021;-95
2021/10/12 01:42:31;;;;;;;7.90;3.78;;;;;;;13.94;67.49;101789.56;4994194;28;20037;-95
2021/10/12 01:44:59;;;;;;;15.77;4.35;;;;;;;13.69;67.83;101779.59;4994856;28;20380;-96
2021/10/12 01:47:25;;;;;;;13.85;4.68;;;;;;;13.63;68.54;101782.63;4996961;28;20013;-95
2021/10/12 01:49:50;;;;;;;10.32;3.78;;;;;;;13.64;68.58;101771.09;4998256;28;20030;-95
2021/10/12 01:52:16;;;;;;;7.18;3.83;;;;;;;13.92;67.73;101774.72;4998134;28;20388;-95
2021/10/12 01:54:42;;;;;;;12.65;3.72;;;;;;;13.99;67.43;101765.50;4998076;28;20481;-95
2021/10/12 01:57:07;;;;;;;9.38;4.13;;;;;;;14.08;67.15;101763.16;4997871;28;20072;-94
2021/10/12 01:59:33;;;;;;;10.30;4.18;;;;;;;14.08;67.13;101768.44;5015404;28;20440;-95
2021/10/12 02:02:02;;;;;;;8.85;3.30;;;;;;;14.01;67.30;101758.34;4997943;28;20041;-95
2021/10/12 02:04:28;;;;;;;12.63;3.65;;;;;;;14.01;67.64;101760.97;4997734;28;20026;-94
2021/10/12 02:06:54;;;;;;;8.15;3.30;;;;;;;13.93;68.10;101760.59;4997651;28;20117;-95
2021/10/12 02:09:19;;;;;;;10.52;3.55;;;;;;;13.78;68.70;101754.44;4997834;28;20050;-95
2021/10/12 02:11:45;;;;;;;7.00;3.20;;;;;;;13.85;68.25;101756.63;4997644;28;20088;-96
2021/10/12 02:14:11;;;;;;;11.40;3.58;;;;;;;14.12;67.98;101766.47;4997777;28;20072;-95
2021/10/12 02:16:36;;;;;;;11.55;3.50;;;;;;;14.21;67.69;101759.75;4997894;28;20026;-95
2021/10/12 02:19:02;;;;;;;10.10;3.50;;;;;;;14.28;67.36;101755.81;4997736;28;20041;-95
2021/10/12 02:21:27;;;;;;;8.60;3.47;;;;;;;14.28;67.48;101739.94;4997601;28;20117;-96
2021/10/12 02:23:53;;;;;;;10.30;3.72;;;;;;;14.29;67.34;101747.75;4997269;28;20025;-95
2021/10/12 02:26:19;;;;;;;12.07;3.78;;;;;;;14.27;67.51;101744.38;4997104;28;20190;-95
2021/10/12 02:28:44;;;;;;;10.93;3.55;;;;;;;14.27;67.88;101744.38;4997432;28;20095;-95
2021/10/12 02:31:09;;;;;;;8.60;3.75;;;;;;;14.31;67.43;101738.91;4997630;28;20045;-95
2021/10/12 02:33:35;;;;;;;8.95;3.60;;;;;;;14.29;67.48;101734.56;4997288;28;20480;-95
2021/10/12 02:36:00;;;;;;;8.48;3.03;;;;;;;14.24;67.28;101728.72;4997603;28;20030;-94
2021/10/12 02:38:26;;;;;;;11.15;4.00;;;;;;;14.16;67.17;101722.19;4997051;28;20361;-95
2021/10/12 02:40:52;;;;;;;10.10;4.35;;;;;;;14.19;66.81;101741.34;4996998;28;20492;-95
2021/10/12 02:43:18;;;;;;;11.88;3.40;;;;;;;14.17;67.50;101737.13;4997098;28;20022;-95
2021/10/12 02:45:43;;;;;;;8.40;3.95;;;;;;;14.12;67.43;101734.78;4997017;28;20391;-95
2021/10/12 02:48:09;;;;;;;11.27;3.13;;;;;;;14.13;67.39;101736.47;4997113;28;20056;-95
2021/10/12 02:50:34;;;;;;;11.70;4.03;;;;;;;14.09;66.96;101732.31;4996868;28;20550;-95
2021/10/12 02:52:59;;;;;;;15.85;3.83;;;;;;;14.03;66.54;101727.41;4996961;28;20026;-95
2021/10/12 02:55:25;;;;;;;10.77;3.55;;;;;;;14.02;67.13;101729.22;4996479;28;20546;-95
2021/10/12 02:57:50;;;;;;;10.85;3.55;;;;;;;14.01;66.95;101716.94;4996422;28;20041;-95
2021/10/12 03:00:15;;;;;;;11.13;3.70;;;;;;;13.95;67.11;101717.31;4996670;28;20061;-93
2021/10/12 03:02:41;;;;;;;11.13;3.38;;;;;;;13.98;67.46;101710.97;4996852;28;20034;-95
2021/10/12 03:05:07;;;;;;;15.00;3.72;;;;;;;14.02;67.33;101713.38;4996595;28;20492;-96
2021/10/12 03:07:32;;;;;;;10.00;3.75;;;;;;;14.05;67.13;101707.88;4996745;28;20113;-95
2021/10/12 03:09:58;;;;;;;9.05;3.35;;;;;;;14.07;67.27;101705.16;4997017;28;20125;-95
2021/10/12 03:12:23;;;;;;;8.40;3.33;;;;;;;14.13;67.11;101702.13;4996640;28;20064;-95
2021/10/12 03:14:48;;;;;;;10.10;3.65;;;;;;;14.14;67.21;101695.91;4996576;28;20365;-96
2021/10/12 03:17:14;;;;;;;8.60;3.28;;;;;;;14.13;67.01;101699.47;4996503;28;20037;-95
2021/10/12 03:19:39;;;;;;;10.88;2.92;;;;;;;14.11;66.94;101698.72;4996200;28;20053;-95
2021/10/12 03:22:25;;;;;;;9.32;2.67;;;;;;;14.02;67.03;101699.28;5013661;28;20041;-95
2021/10/12 03:24:50;;;;;;;9.57;3.60;;;;;;;14.05;66.94;101694.66;5013174;28;20038;-95
2021/10/12 03:27:16;;;;;;;6.20;3.00;;;;;;;14.01;66.83;101700.25;4996074;28;20075;-95
2021/10/12 03:29:42;;;;;;;7.53;3.10;;;;;;;13.99;67.46;101702.97;5013731;28;20480;-94
2021/10/12 03:32:07;;;;;;;6.30;3.10;;;;;;;13.99;67.31;101713.53;4995989;28;20022;-95
2021/10/12 03:34:33;;;;;;;9.70;3.45;;;;;;;14.00;67.23;101709.09;4995973;28;20022;-94
2021/10/12 03:36:59;;;;;;;13.32;4.10;;;;;;;14.01;66.98;101708.16;4996410;28;20026;-95
2021/10/12 03:39:26;;;;;;;8.35;3.55;;;;;;;13.96;66.81;101702.31;4996030;28;20026;-95
2021/10/12 03:41:52;;;;;;;9.60;3.53;;;;;;;13.94;66.91;101713.00;4995866;28;20061;-95
2021/10/12 03:44:19;;;;;;;13.88;4.45;;;;;;;13.94;67.13;101714.75;4995912;28;20049;-94
2021/10/12 03:46:45;;;;;;;8.48;3.92;;;;;;;13.92;67.16;101711.38;4996596;28;20109;-94
2021/10/12 03:49:10;;;;;;;14.07;6.28;;;;;;;13.93;67.26;101718.34;4996605;28;20022;-94
2021/10/12 03:51:36;;;;;;;17.95;6.28;;;;;;;13.91;67.98;101713.16;5013573;28;20065;-94
2021/10/12 03:54:01;;;;;;;14.05;5.95;;;;;;;13.97;67.48;101711.94;4995777;28;20022;-94
2021/10/12 03:56:27;;;;;;;12.25;5.20;;;;;;;13.96;67.52;101699.66;4994797;28;20096;-95
2021/10/12 03:58:53;;;;;;;19.35;6.72;;;;;;;13.94;68.79;101706.84;5012909;28;20542;-95
2021/10/12 04:01:20;;;;;;;19.50;6.45;;;;;;;13.98;68.56;101701.28;5012960;28;20036;-95
2021/10/12 04:03:46;;;;;;;13.43;6.05;;;;;;;13.97;68.61;101698.75;4995167;28;20025;-94
2021/10/12 04:06:12;;;;;;;12.60;6.25;;;;;;;13.96;68.73;101707.59;4995052;28;20022;-93
2021/10/12 04:08:37;;;;;;;13.13;5.68;;;;;;;13.76;68.30;101707.00;4994612;28;20363;-94
2021/10/12 04:11:03;;;;;;;12.30;4.93;;;;;;;13.65;68.53;101709.47;4994572;28;20072;-93
2021/10/12 04:13:28;;;;;;;11.68;4.80;;;;;;;13.57;68.43;101707.28;4994955;28;20048;-93
2021/10/12 04:15:53;;;;;;;14.55;4.90;;;;;;;13.69;68.21;101716.25;5012286;28;20033;-93
2021/10/12 04:18:19;;;;;;;14.07;4.53;;;;;;;13.75;67.44;101705.34;4994780;28;20033;-93
2021/10/12 04:20:44;;;;;;;10.93;5.03;;;;;;;13.78;67.20;101715.69;5012572;28;20030;-94
2021/10/12 04:23:11;;;;;;;9.30;4.07;;;;;;;13.59;67.37;101721.25;5012362;28;20037;-93
2021/10/12 04:25:38;;;;;;;10.15;3.90;;;;;;;13.36;67.67;101711.19;4995074;28;20029;-93
2021/10/12 04:28:10;;;;;;;11.57;3.95;;;;;;;13.29;67.58;101713.31;5012207;28;20033;-92
2021/10/12 04:30:35;;;;;;;12.23;4.57;;;;;;;13.20;67.57;101698.88;4994574;28;20033;-92
2021/10/12 04:33:00;;;;;;;8.55;3.90;;;;;;;13.13;67.49;101701.94;4994644;28;20034;-92
2021/10/12 04:35:26;;;;;;;15.68;4.22;;;;;;;13.05;67.40;101703.25;5012469;28;20083;-92
2021/10/12 04:37:51;;;;;;;11.43;4.72;;;;;;;13.02;67.52;101707.84;4994645;28;20492;-93
2021/10/12 04:40:17;;;;;;;9.27;4.10;;;;;;;12.95;67.32;101694.16;5012158;28;20026;-93
2021/10/12 04:42:42;;;;;;;7.68;3.78;;;;;;;12.94;66.68;101703.03;4994572;28;20034;-93
2021/10/12 04:45:07;;;;;;;9.57;4.30;;;;;;;12.81;66.72;101707.28;5012032;28;20107;-93
2021/10/12 04:47:33;;;;;;;14.77;5.65;;;;;;;12.82;66.71;101709.00;4994177;28;20030;-93
2021/10/12 04:49:58;;;;;;;10.82;4.88;;;;;;;12.74;66.95;101708.56;5012135;28;20476;-93
2021/10/12 04:52:24;;;;;;;12.90;4.90;;;;;;;12.75;67.17;101707.63;4994864;28;20025;-94
2021/10/12 04:54:49;;;;;;;11.05;5.90;;;;;;;12.90;66.06;101706.78;5012449;28;20026;-93
2021/10/12 04:57:15;;;;;;;12.05;6.18;;;;;;;12.90;65.57;101701.50;5012025;28;20121;-94
2021/10/12 04:59:41;;;;;;;13.48;5.95;;;;;;;12.67;66.81;101697.53;4994473;28;20037;-92
2021/10/12 05:02:06;;;;;;;12.68;5.53;;;;;;;12.63;66.79;101688.94;5011529;28;20030;-92
2021/10/12 05:04:31;;;;;;;13.20;6.22;;;;;;;12.53;66.52;101698.28;5011699;28;20036;-92
2021/10/12 05:06:57;;;;;;;9.38;5.47;;;;;;;12.47;67.44;101688.94;5011751;28;20077;-93
2021/10/12 05:09:22;;;;;;;11.93;6.10;;;;;;;12.48;67.14;101695.09;5011774;28;20022;-92
2021/10/12 05:11:48;;;;;;;12.70;6.32;;;;;;;12.46;66.99;101678.47;4994236;28;20476;-93
2021/10/12 05:14:15;;;;;;;9.45;5.43;;;;;;;12.76;65.93;101691.75;5011880;28;20022;-93
2021/10/12 05:16:41;;;;;;;7.55;4.82;;;;;;;12.62;66.01;101686.41;5011386;28;20105;-92
2021/10/12 05:19:06;;;;;;;10.07;5.57;;;;;;;12.59;65.70;101684.78;4993585;28;20440;-92
2021/10/12 05:21:31;;;;;;;9.95;4.60;;;;;;;12.70;65.19;101687.66;5013977;28;20080;-93
2021/10/12 05:23:58;;;;;;;6.70;4.63;;;;;;;12.44;65.13;101677.72;5015551;28;20030;-92
2021/10/12 05:26:23;;;;;;;7.38;4.65;;;;;;;12.38;65.13;101667.53;5015317;28;20030;-93
2021/10/12 05:28:51;;;;;;;9.00;4.63;;;;;;;12.56;64.71;101670.91;5015362;28;20396;-93
2021/10/12 05:31:18;;;;;;;8.00;4.57;;;;;;;12.24;65.28;101666.53;4997660;28;20026;-92
2021/10/12 05:33:44;;;;;;;9.13;3.97;;;;;;;12.31;65.68;101672.28;5015106;28;20097;-93
2021/10/12 05:36:09;;;;;;;12.45;5.15;;;;;;;12.38;64.83;101683.34;4997739;28;20038;-92
2021/10/12 05:38:35;;;;;;;9.63;4.68;;;;;;;12.39;64.84;101680.63;4997448;28;20112;-93
2021/10/12 05:41:00;;;;;;;8.05;4.50;;;;;;;12.30;64.62;101686.38;4997486;28;20096;-93
2021/10/12 05:43:26;;;;;;;10.95;4.60;;;;;;;12.30;64.83;101679.34;4997607;28;20022;-94
2021/10/12 05:45:51;;;;;;;9.05;4.22;;;;;;;12.29;64.71;101688.16;5015307;28;20072;-94
2021/10/12 05:48:18;;;;;;;8.63;4.63;;;;;;;12.42;64.69;101683.09;4997397;28;20366;-94
2021/10/12 05:50:46;;;;;;;5.88;3.78;;;;;;;12.46;64.40;101682.00;5003042;28;20515;-92
2021/10/12 05:55:51;;;;;;;7.78;4.45;;;;;;;12.40;64.56;101676.19;5015380;28;20030;-92
2021/10/12 06:01:12;;;;;;;7.15;4.40;;;;;;;12.30;64.39;101692.53;4996861;28;20037;-92
2021/10/12 06:03:38;;;;;;;9.15;4.53;;;;;;;12.26;64.38;101688.34;5014522;28;20018;-91
2021/10/12 06:06:04;;;;;;;9.13;3.90;;;;;;;12.10;64.70;101675.19;5013911;28;20025;-92
2021/10/12 06:08:31;;;;;;;6.65;3.47;;;;;;;12.10;64.67;101676.94;5013917;28;20034;-93
2021/10/12 06:11:00;;;;;;;6.70;2.97;;;;;;;11.87;64.93;101663.22;5013662;28;20072;-92
2021/10/12 06:13:26;;;;;;;8.15;3.00;;;;;;;12.12;64.77;101672.44;5013557;28;20143;-92
2021/10/12 06:15:52;;;;;;;5.88;2.83;;;;;;;12.00;65.14;101666.06;5015146;28;20025;-91
2021/10/12 06:18:19;;;;;;;5.60;1.60;;;;;;;12.00;65.64;101668.69;5013388;28;20100;-92
2021/10/12 06:20:45;;;;;;;6.68;1.85;;;;;;;12.02;65.79;101669.44;5013542;28;20034;-93
2021/10/12 06:23:11;;;;;;;6.82;1.90;;;;;;;11.86;66.03;101656.22;5010388;28;20507;-93
2021/10/12 06:25:36;;;;;;;3.60;1.70;;;;;;;11.80;66.41;101653.09;4995409;28;20034;-94
2021/10/12 06:28:03;;;;;;;3.35;1.77;;;;;;;12.04;65.83;101656.22;5014301;28;20026;-94
2021/10/12 06:30:28;;;;;;;7.57;3.25;;;;;;;12.10;65.78;101637.44;4996575;28;20502;-93
2021/10/12 06:32:54;;;;;;;7.35;3.85;;;;;;;12.13;65.33;101637.28;5013320;28;20026;-94
2021/10/12 06:35:19;;;;;;;7.43;3.70;;;;;;;12.05;65.74;101631.59;4996436;28;20120;-93
2021/10/12 06:37:45;;;;;;;8.38;3.70;;;;;;;11.99;65.85;101626.69;4995898;28;20037;-94
2021/10/12 06:40:11;;;;;;;6.95;3.65;;;;;;;12.00;66.20;101633.63;5014024;28;20026;-93
2021/10/12 06:42:36;;;;;;;5.10;3.38;;;;;;;12.11;66.02;101633.91;5013736;28;20033;-94
2021/10/12 06:45:02;;;;;;;12.25;3.70;;;;;;;12.17;65.92;101617.75;5014129;28;20022;-95
2021/10/12 06:47:28;;;;;;;8.50;3.47;;;;;;;11.88;66.09;101593.00;5013071;28;20064;-96
2021/10/12 06:49:53;;;;;;;7.70;3.10;;;;;;;12.15;66.40;101616.16;5014338;28;20026;-96
2021/10/12 06:52:20;;;;;;;6.05;2.90;;;;;;;12.14;66.57;101617.91;5000046;28;20476;-96
2021/10/12 06:54:48;;;;;;;4.25;2.80;;;;;;;12.19;66.74;101612.41;5013143;28;20037;-94
2021/10/12 06:57:14;;;;;;;6.22;3.92;;;;;;;12.30;66.26;101602.97;5012750;28;20104;-94
2021/10/12 06:59:39;;;;;;;6.13;3.22;;;;;;;12.38;66.88;101620.13;5012757;28;20105;-95
2021/10/12 07:02:05;;;;;;;5.45;3.38;;;;;;;12.49;66.71;101628.28;5013801;28;20507;-94
2021/10/12 07:04:30;;;;;;;5.97;3.20;;;;;;;12.77;67.04;101653.91;5013384;28;20069;-94
2021/10/12 07:06:56;;;;;;;5.28;2.88;;;;;;;12.83;67.22;101643.00;5013301;28;20025;-95
2021/10/12 07:09:21;;;;;;;5.93;2.92;;;;;;;12.92;67.29;101643.44;4994570;28;20121;-94
2021/10/12 07:11:46;;;;;;;6.22;3.20;;;;;;;13.07;67.07;101650.41;5013274;28;20034;-94
2021/10/12 07:14:14;;;;;;;5.53;2.83;;;;;;;13.15;66.74;101642.06;5011765;28;20144;-94
2021/10/12 07:16:39;;;;;;;6.38;3.05;;;;;;;13.23;67.72;101629.25;4995816;28;20041;-94
2021/10/12 07:19:05;;;;;;;10.60;3.50;;;;;;;13.32;68.42;101625.28;4993778;28;20026;-94
2021/10/12 07:21:32;;;;;;;9.52;4.30;;;;;;;13.40;69.73;101637.06;4994532;28;20022;-94
2021/10/12 07:23:57;;;;;;;13.50;4.47;;;;;;;13.52;70.71;101650.44;4994580;28;20473;-95
2021/10/12 07:26:23;;;;;;;12.25;4.40;;;;;;;13.80;70.28;101650.47;4994454;28;20025;-93
2021/10/12 07:28:48;;;;;;;13.82;4.57;;;;;;;13.93;70.54;101655.81;4994661;28;20488;-94
2021/10/12 07:31:14;;;;;;;9.95;4.10;;;;;;;14.16;70.02;101654.41;5012130;28;20548;-95
2021/10/12 07:33:39;;;;;;;12.43;3.83;;;;;;;14.25;70.27;101640.59;4994572;28;20018;-96
2021/10/12 07:36:04;;;;;;;8.82;4.13;;;;;;;14.64;69.52;101652.22;4994669;28;20104;-95
2021/10/12 07:38:31;;;;;;;16.40;5.60;;;;;;;14.78;69.14;101632.81;4994356;28;20061;-96
2021/10/12 07:40:57;;;;;;;11.88;4.47;;;;;;;14.68;68.78;101650.22;4994307;28;20053;-95
2021/10/12 07:43:22;;;;;;;14.05;5.20;;;;;;;15.09;67.79;101646.63;4997958;28;20049;-95
2021/10/12 07:45:48;;;;;;;13.30;4.25;;;;;;;15.14;67.45;101655.09;4994656;28;20072;-95
2021/10/12 07:48:15;;;;;;;12.50;4.30;;;;;;;15.16;67.28;101636.47;4994439;28;20021;-95
2021/10/12 07:50:40;;;;;;;15.93;5.57;;;;;;;15.58;67.15;101645.06;4994470;28;20033;-95
2021/10/12 07:53:06;;;;;;;15.35;4.63;;;;;;;15.92;66.54;101627.69;4993690;28;20026;-95
2021/10/12 07:55:38;;;;;;;15.20;3.80;;;;;;;16.29;64.93;101633.00;4994280;28;20037;-96
2021/10/12 07:58:04;;;;;;;12.70;3.20;;;;;;;16.69;64.00;101629.25;4993781;28;20025;-96
2021/10/12 08:00:31;;;;;;;10.75;2.75;;;;;;;17.05;62.42;101645.06;4994569;28;20029;-95
2021/10/12 08:03:02;;;;;;;22.85;3.03;;;;;;;17.23;61.54;101624.22;4990775;28;20030;-96
2021/10/12 08:05:28;;;;;;;12.98;2.75;;;;;;;17.43;61.87;101645.75;4994520;28;20069;-95
2021/10/12 08:07:54;;;;;;;12.50;2.88;;;;;;;17.77;60.35;101648.41;4996261;28;20053;-94
2021/10/12 08:10:21;;;;;;;9.00;2.45;;;;;;;18.02;60.38;101631.41;4993428;28;20030;-95
2021/10/12 08:12:50;;;;;;;11.90;3.20;;;;;;;18.16;59.04;101643.59;4993724;28;20030;-95
2021/10/12 08:15:16;;;;;;;12.60;2.42;;;;;;;18.13;58.66;101642.03;4993746;28;20045;-96
2021/10/12 08:17:42;;;;;;;10.85;3.17;;;;;;;18.21;58.63;101650.25;4992688;28;20029;-95
2021/10/12 08:20:08;;;;;;;13.40;3.30;;;;;;;18.20;57.74;101647.69;4993846;28;20117;-96
2021/10/12 08:22:34;;;;;;;14.38;2.80;;;;;;;18.71;57.61;101638.25;5011152;28;20065;-95
2021/10/12 08:24:59;;;;;;;9.18;2.60;;;;;;;19.00;56.64;101636.69;4994153;28;20044;-96
2021/10/12 08:27:25;;;;;;;11.95;2.47;;;;;;;19.78;54.54;101642.47;4994477;28;20034;-95
2021/10/12 08:29:50;;;;;;;8.23;1.70;;;;;;;21.02;52.38;101650.13;4994430;28;20319;-95
2021/10/12 08:32:15;;;;;;;8.68;2.42;;;;;;;21.76;49.67;101660.94;4993427;28;20481;-94
2021/10/12 08:34:41;;;;;;;11.25;2.45;;;;;;;22.57;48.49;101652.19;4995832;28;20014;-93
2021/10/12 08:37:07;;;;;;;11.20;1.92;;;;;;;23.72;45.38;101649.53;4993476;28;20022;-94
2021/10/12 08:39:33;;;;;;;13.98;2.38;;;;;;;24.37;43.70;101638.22;5011012;28;20173;-95
2021/10/12 08:42:07;;;;;;;11.20;2.40;;;;;;;24.72;42.56;101636.25;4993554;28;20029;-94
2021/10/12 08:45:09;;;;;;;10.25;1.95;;;;;;;24.58;42.61;101634.22;4993290;28;20072;-94
2021/10/12 08:47:35;;;;;;;;;;;;;;;25.30;41.04;101637.91;5003068;28;20038;-96
2021/10/12 08:50:04;;;;;;;11.10;2.38;;;;;;;25.23;42.11;101646.81;5011097;28;19945;-95
2021/10/12 08:52:29;;;;;;;13.50;2.72;;;;;;;25.48;40.98;101643.06;4993497;28;20022;-95
2021/10/12 08:54:56;;;;;;;5.18;1.85;;;;;;;25.42;40.62;101638.38;5010966;28;20439;-95
2021/10/12 08:57:28;;;;;;;9.82;3.30;;;;;;;26.17;40.29;101625.50;5014861;28;20022;-95
2021/10/12 08:59:54;;;;;;;9.13;2.20;;;;;;;26.24;39.33;101623.75;5014914;28;20105;-94
2021/10/12 09:02:20;;;;;;;8.15;1.77;;;;;;;26.30;38.39;101625.72;4997168;28;20076;-94
2021/10/12 09:04:45;;;;;;;9.05;2.70;;;;;;;26.90;38.45;101633.03;5013171;28;20057;-93
2021/10/12 09:07:19;;;;;;;8.40;2.30;;;;;;;27.44;37.50;101634.72;4996113;28;20026;-94
2021/10/12 09:09:45;;;;;;;8.70;2.38;;;;;;;27.94;36.20;101629.56;4993358;28;20079;-94
2021/10/12 09:12:11;;;;;;;8.15;2.33;;;;;;;27.58;36.78;101641.13;5014308;28;20034;-93
2021/10/12 09:14:57;;;;;;;10.30;2.80;;;;;;;28.29;36.01;101632.47;5014263;28;20036;-93
2021/10/12 09:17:37;;;;;;;7.25;2.28;;;;;;;27.70;36.12;101639.63;5014537;28;20365;-93
2021/10/12 09:20:27;;;;;;;14.23;2.50;;;;;;;28.24;35.71;101637.63;5013812;28;20030;-93
2021/10/12 09:23:11;;;;;;;10.20;2.65;;;;;;;27.67;36.74;101637.31;4988913;28;20130;-93
2021/10/12 09:25:43;;;;;;;11.70;3.33;;;;;;;28.80;36.04;101632.34;5013414;28;20124;-93
2021/10/12 09:28:25;;;;;;;10.88;2.33;;;;;;;28.63;34.90;101630.94;5013429;28;20017;-93
2021/10/12 09:30:55;;;;;;;5.30;2.20;;;;;;;28.75;33.87;101626.69;5013181;28;20051;-93
2021/10/12 09:33:21;;;;;;;10.10;2.45;;;;;;;28.39;35.08;101626.75;5013786;28;20037;-92
2021/10/12 09:35:47;;;;;;;11.13;2.42;;;;;;;28.61;34.72;101630.31;5013532;28;20073;-92
2021/10/12 09:38:13;;;;;;;12.30;4.28;;;;;;;28.27;36.17;101621.84;5015293;28;20025;-93
2021/10/12 09:40:42;;;;;;;10.45;2.33;;;;;;;29.16;34.00;101623.28;5012833;28;20026;-93
2021/10/12 09:43:08;;;;;;;6.72;2.35;;;;;;;29.50;34.10;101621.63;5012976;28;20476;-93
2021/10/12 09:45:45;;;;;;;12.55;2.53;;;;;;;29.92;32.82;101611.63;4995691;28;20032;-93
2021/10/12 09:48:25;;;;;;;7.80;2.50;;;;;;;30.51;32.55;101618.25;5013234;28;20014;-93
2021/10/12 09:51:06;;;;;;;7.27;2.70;;;;;;;30.32;32.53;101617.19;5012237;28;20119;-93
2021/10/12 09:53:33;;;;;;;9.48;2.53;;;;;;;31.10;31.86;101608.44;5013459;28;20026;-93
2021/10/12 09:55:59;;;;;;;10.02;2.65;;;;;;;30.47;33.34;101618.84;5013163;28;20033;-93
2021/10/12 09:58:29;;;;;;;9.48;2.40;;;;;;;30.70;32.75;101608.44;5013139;28;20022;-92
2021/10/12 10:00:56;;;;;;;8.48;3.13;;;;;;;30.71;32.40;101593.84;5013375;28;20030;-93
2021/10/12 10:03:22;;;;;;;7.07;3.38;;;;;;;31.02;31.51;101605.94;5013219;28;20029;-94
2021/10/12 10:05:47;;;;;;;9.90;2.80;;;;;;;30.99;33.20;101595.53;5013217;28;20028;-93
2021/10/12 10:08:14;;;;;;;7.82;2.05;;;;;;;30.93;31.49;101602.63;5012243;28;20030;-93
2021/10/12 10:10:40;;;;;;;12.80;3.35;;;;;;;31.42;31.25;101614.00;5012938;28;20026;-93
2021/10/12 10:13:05;;;;;;;9.40;3.05;;;;;;;31.25;31.70;101605.50;5012611;28;20091;-95
2021/10/12 10:15:31;;;;;;;7.95;2.28;;;;;;;31.75;30.42;101610.34;5012923;28;20488;-94
2021/10/12 10:17:57;;;;;;;8.23;2.45;;;;;;;31.95;31.08;101605.66;5012883;28;20109;-95
2021/10/12 10:20:23;;;;;;;13.00;3.65;;;;;;;31.25;31.31;101612.81;5012818;28;20036;-93
2021/10/12 10:22:51;;;;;;;8.45;2.70;;;;;;;31.31;31.64;101604.63;5012281;28;20392;-93
2021/10/12 10:25:38;;;;;;;8.70;2.17;;;;;;;31.65;31.37;101604.53;5013077;28;20530;-94
2021/10/12 10:28:15;;;;;;;8.52;2.65;;;;;;;32.05;31.02;101609.81;5007622;28;20034;-93
2021/10/12 10:31:01;;;;;;;8.15;2.65;;;;;;;32.14;30.26;101592.19;5006818;28;20041;-93
2021/10/12 10:33:29;;;;;;;7.97;2.45;;;;;;;32.35;29.82;101599.16;4994416;28;20077;-93
2021/10/12 10:36:05;;;;;;;8.50;2.08;;;;;;;32.39;29.96;101587.63;4996463;28;20037;-93
2021/10/12 10:38:42;;;;;;;10.30;2.70;;;;;;;32.50;29.99;101587.97;4994476;28;20121;-92
2021/10/12 10:41:10;;;;;;;9.10;2.90;;;;;;;31.48;31.59;101591.47;5005492;28;20080;-93
2021/10/12 10:44:01;;;;;;;10.07;2.83;;;;;;;31.40;30.61;101575.41;5011784;28;20040;-92
2021/10/12 10:46:35;;;;;;;;;;;;;;;31.79;30.93;101573.56;5013731;28;20026;-93
2021/10/12 10:49:13;;;;;;;9.60;2.35;;;;;;;31.63;30.09;101570.28;5013270;28;19932;-93
2021/10/12 10:52:02;;;;;;;7.78;2.88;;;;;;;31.49;30.88;101570.59;5013443;28;20029;-92
2021/10/12 10:54:36;;;;;;;6.10;2.20;;;;;;;31.53;31.00;101569.94;5013041;28;20029;-92
2021/10/12 10:57:16;;;;;;;7.88;2.17;;;;;;;31.74;30.11;101570.69;5013847;28;20076;-92
2021/10/12 10:59:41;;;;;;;7.90;1.95;;;;;;;31.74;30.30;101571.50;5013093;28;20097;-93
2021/10/12 11:02:28;;;;;;;4.40;1.65;;;;;;;31.37;30.51;101570.38;5013515;28;20480;-93
2021/10/12 11:04:54;;;;;;;10.50;1.88;;;;;;;31.36;31.37;101556.00;4995546;28;20022;-94
2021/10/12 11:07:21;;;;;;;6.20;1.60;;;;;;;31.08;30.68;101556.25;5013131;28;20022;-93
2021/10/12 11:09:46;;;;;;;6.15;1.30;;;;;;;30.53;30.70;101564.69;4995746;28;20029;-93
2021/10/12 11:12:30;;;;;;;4.00;1.02;;;;;;;31.02;30.88;101547.13;5012831;28;20033;-94
2021/10/12 11:15:08;;;;;;;6.68;1.75;;;;;;;30.47;31.18;101551.09;5013325;28;20045;-94
2021/10/12 11:17:34;;;;;;;7.78;1.60;;;;;;;29.93;31.58;101550.19;5013255;28;20033;-92
2021/10/12 11:20:07;;;;;;;7.28;1.92;;;;;;;30.36;31.95;101549.88;5012449;28;20030;-91
2021/10/12 11:22:39;;;;;;;5.40;1.35;;;;;;;30.30;32.77;101553.38;5012517;28;20518;-92
2021/10/12 11:25:05;;;;;;;3.95;1.05;;;;;;;30.31;31.56;101552.34;5012944;28;20022;-93
2021/10/12 11:27:46;;;;;;;5.55;1.45;;;;;;;29.46;32.21;101552.69;5013114;28;20408;-93